Aviation Digital Data Service (ADDS)

Output produced by METARs form (2152 UTC 02 October 2022)
found at http://aviationweather.gov/metar/data/
 
METAR text: KEIK 022135Z AUTO 00000KT 10SM CLR 23/03 A3013 RMK AO2 T02260030 PWINO
Conditions at: KEIK (ERIE MUNI , CO, US) observed 2135 UTC 02 October 2022
Temperature: 22.6°C (73°F)
Dewpoint: 3.0°C (37°F) [RH = 28%]
Pressure (altimeter): 30.13 inches Hg (1020.4 mb)
Winds: calm
Visibility: 10 or more miles (16+ km)
Ceiling: at least 12,000 feet AGL
Clouds: sky clear below 12,000 feet AGL
Weather: automated observation with no human augmentation;
there may or may not be significant weather present at this time

METAR text: KEIK 022115Z AUTO 16004KT 10SM CLR 23/03 A3013 RMK AO2 T02320028 PWINO
Conditions at: KEIK (ERIE MUNI , CO, US) observed 2115 UTC 02 October 2022
Temperature: 23.2°C (74°F)
Dewpoint: 2.8°C (37°F) [RH = 26%]
Pressure (altimeter): 30.13 inches Hg (1020.4 mb)
Winds: from the SSE (160 degrees) at 5 MPH (4 knots; 2.1 m/s)
Visibility: 10 or more miles (16+ km)
Ceiling: at least 12,000 feet AGL
Clouds: sky clear below 12,000 feet AGL
Weather: automated observation with no human augmentation;
there may or may not be significant weather present at this time

METAR text: KEIK 022055Z AUTO 14007KT 10SM CLR 24/04 A3013 RMK AO2 T02350036 PWINO
Conditions at: KEIK (ERIE MUNI , CO, US) observed 2055 UTC 02 October 2022
Temperature: 23.5°C (74°F)
Dewpoint: 3.6°C (38°F) [RH = 27%]
Pressure (altimeter): 30.13 inches Hg (1020.4 mb)
Winds: from the SE (140 degrees) at 8 MPH (7 knots; 3.6 m/s)
Visibility: 10 or more miles (16+ km)
Ceiling: at least 12,000 feet AGL
Clouds: sky clear below 12,000 feet AGL
Weather: automated observation with no human augmentation;
there may or may not be significant weather present at this time